createdAt,value
2018-12-18T00:00:20.285Z,100.00
2018-12-18T00:02:48.005Z,100.00
2018-12-18T00:05:20.980Z,100.00
2018-12-18T00:07:48.429Z,100.00
2018-12-18T00:10:15.901Z,100.00
2018-12-18T00:12:43.351Z,100.00
2018-12-18T00:15:10.823Z,100.00
2018-12-18T00:17:38.272Z,100.00
2018-12-18T00:20:06.001Z,100.00
2018-12-18T00:22:33.492Z,100.00
2018-12-18T00:25:00.961Z,100.00
2018-12-18T00:27:28.416Z,100.00
2018-12-18T00:29:55.861Z,100.00
2018-12-18T00:32:23.324Z,100.00
2018-12-18T00:34:50.765Z,100.00
2018-12-18T00:37:18.302Z,100.00
2018-12-18T00:39:46.003Z,100.00
2018-12-18T00:42:13.488Z,100.00
2018-12-18T00:44:40.948Z,100.00
2018-12-18T00:47:08.398Z,100.00
2018-12-18T00:49:35.845Z,100.00
2018-12-18T00:52:03.305Z,100.00
2018-12-18T00:54:30.787Z,100.00
2018-12-18T00:56:58.246Z,100.00
2018-12-18T00:59:25.706Z,100.00
2018-12-18T01:01:58.778Z,100.00
2018-12-18T01:04:26.234Z,100.00
2018-12-18T01:06:54.048Z,100.00
2018-12-18T01:09:21.703Z,100.00
2018-12-18T01:11:49.886Z,100.00
2018-12-18T01:14:17.339Z,100.00
2018-12-18T01:16:44.801Z,100.00
2018-12-18T01:19:12.244Z,100.00
2018-12-18T01:21:39.700Z,100.00
2018-12-18T01:24:07.176Z,100.00
2018-12-18T01:26:34.621Z,100.00
2018-12-18T01:29:02.092Z,100.00
2018-12-18T01:31:29.545Z,100.00
2018-12-18T01:33:59.388Z,100.00
2018-12-18T01:36:26.481Z,100.00
2018-12-18T01:38:53.942Z,100.00
2018-12-18T01:41:21.382Z,100.00
2018-12-18T01:43:48.849Z,100.00
2018-12-18T01:46:16.296Z,100.00
2018-12-18T01:48:43.750Z,100.00
2018-12-18T01:51:11.193Z,100.00
2018-12-18T01:53:38.658Z,100.00
2018-12-18T01:56:06.114Z,100.00
2018-12-18T01:58:33.574Z,100.00
2018-12-18T02:01:01.027Z,100.00
2018-12-18T02:03:28.502Z,100.00
2018-12-18T02:05:56.338Z,100.00
2018-12-18T02:08:23.798Z,100.00
2018-12-18T02:10:51.247Z,100.00
2018-12-18T02:13:18.702Z,100.00
2018-12-18T02:15:46.173Z,100.00
2018-12-18T02:18:13.626Z,100.00
2018-12-18T02:20:41.094Z,100.00
2018-12-18T02:23:08.546Z,100.00
2018-12-18T02:25:36.005Z,100.00
2018-12-18T02:28:03.457Z,100.00
2018-12-18T02:30:31.298Z,100.00
2018-12-18T02:32:58.751Z,100.00
2018-12-18T02:35:26.229Z,100.00
2018-12-18T02:37:53.785Z,100.00
2018-12-18T02:43:51.351Z,100.00
2018-12-18T02:46:18.905Z,100.00
2018-12-18T02:48:46.359Z,100.00
2018-12-18T02:51:13.823Z,100.00
2018-12-18T02:53:41.279Z,100.00
2018-12-18T02:56:08.743Z,100.00
2018-12-18T02:58:36.196Z,100.00
2018-12-18T03:01:03.665Z,100.00
2018-12-18T03:03:31.154Z,100.00
2018-12-18T03:05:58.610Z,100.00
2018-12-18T03:08:26.061Z,100.00
2018-12-18T03:10:53.526Z,100.00
2018-12-18T03:13:20.982Z,100.00
2018-12-18T03:15:48.449Z,100.00
2018-12-18T03:18:15.909Z,100.00
2018-12-18T03:20:43.362Z,100.00
2018-12-18T03:23:10.826Z,100.00
2018-12-18T03:25:38.283Z,100.00
2018-12-18T03:28:05.817Z,100.00
2018-12-18T03:30:33.264Z,100.00
2018-12-18T03:33:00.811Z,100.00
2018-12-18T03:35:28.342Z,100.00
2018-12-18T03:37:55.813Z,100.00
2018-12-18T03:40:23.257Z,100.00
2018-12-18T03:42:50.717Z,100.00
2018-12-18T03:45:18.165Z,100.00
2018-12-18T03:47:45.629Z,100.00
2018-12-18T03:50:13.081Z,100.00
2018-12-18T03:52:40.546Z,100.00
2018-12-18T03:55:08.067Z,100.00
2018-12-18T03:57:35.543Z,100.00
2018-12-18T04:00:04.079Z,100.00
2018-12-18T04:02:31.538Z,100.00
2018-12-18T04:04:58.987Z,100.00
2018-12-18T04:07:26.438Z,100.00
2018-12-18T04:09:53.901Z,100.00
2018-12-18T04:12:21.635Z,100.00
2018-12-18T04:14:49.279Z,100.00
2018-12-18T04:17:16.745Z,100.00
2018-12-18T04:19:44.226Z,100.00
2018-12-18T04:22:12.548Z,100.00
2018-12-18T04:24:40.069Z,100.00
2018-12-18T04:27:07.517Z,100.00
2018-12-18T04:29:34.978Z,100.00
2018-12-18T04:32:02.420Z,100.00
2018-12-18T04:34:29.915Z,100.00
2018-12-18T04:36:57.440Z,100.00
2018-12-18T04:39:24.909Z,100.00
2018-12-18T04:41:52.356Z,100.00
2018-12-18T04:44:19.831Z,100.00
2018-12-18T04:46:49.286Z,100.00
2018-12-18T04:49:16.853Z,100.00
2018-12-18T04:51:44.306Z,100.00
2018-12-18T04:54:11.820Z,100.00
2018-12-18T04:56:39.256Z,100.00
2018-12-18T04:59:06.701Z,100.00
2018-12-18T05:01:34.164Z,100.00
2018-12-18T05:04:01.621Z,100.00
2018-12-18T05:06:29.407Z,100.00
2018-12-18T05:08:56.850Z,100.00
2018-12-18T05:11:24.313Z,100.00
2018-12-18T05:13:51.766Z,100.00
2018-12-18T05:16:19.228Z,100.00
2018-12-18T05:18:46.679Z,100.00
2018-12-18T05:21:14.158Z,100.00
2018-12-18T05:23:41.620Z,100.00
2018-12-18T05:26:09.082Z,100.00
2018-12-18T05:28:36.539Z,100.00
2018-12-18T05:31:04.001Z,100.00
2018-12-18T05:33:31.464Z,100.00
2018-12-18T05:35:58.934Z,100.00
2018-12-18T05:38:26.378Z,100.00
2018-12-18T05:40:53.922Z,100.00
2018-12-18T05:43:21.449Z,100.00
2018-12-18T05:45:48.907Z,100.00
2018-12-18T05:48:16.370Z,100.00
2018-12-18T05:50:43.820Z,100.00
2018-12-18T05:53:11.286Z,100.00
2018-12-18T05:55:38.761Z,100.00
2018-12-18T05:58:06.241Z,100.00
2018-12-18T06:00:33.687Z,100.00
2018-12-18T06:03:01.159Z,100.00
2018-12-18T06:05:28.594Z,100.00
2018-12-18T06:07:56.181Z,100.00
2018-12-18T06:10:24.630Z,100.00
2018-12-18T06:12:52.117Z,100.00
2018-12-18T06:15:19.554Z,100.00
2018-12-18T06:17:47.266Z,100.00
2018-12-18T06:20:14.694Z,100.00
2018-12-18T06:22:42.484Z,100.00
2018-12-18T06:25:10.119Z,100.00
2018-12-18T06:27:37.722Z,100.00
2018-12-18T06:30:07.106Z,100.00
2018-12-18T06:32:34.709Z,100.00
2018-12-18T06:35:02.140Z,100.00
2018-12-18T06:37:30.023Z,100.00
2018-12-18T06:39:57.459Z,100.00
2018-12-18T06:42:24.901Z,100.00
2018-12-18T06:44:52.578Z,100.00
2018-12-18T06:47:20.025Z,100.00
2018-12-18T06:49:47.621Z,100.00
2018-12-18T06:52:15.058Z,100.00
2018-12-18T06:54:42.619Z,100.00
2018-12-18T06:57:10.056Z,100.00
2018-12-18T06:59:38.089Z,100.00
2018-12-18T07:02:05.506Z,100.00
2018-12-18T07:04:33.300Z,100.00
2018-12-18T07:07:00.732Z,100.00
2018-12-18T07:09:29.114Z,100.00
2018-12-18T07:11:56.552Z,100.00
2018-12-18T07:14:24.116Z,100.00
2018-12-18T07:16:51.547Z,100.00
2018-12-18T07:19:19.291Z,100.00
2018-12-18T07:21:46.728Z,100.00
2018-12-18T07:24:14.436Z,100.00
2018-12-18T07:26:41.920Z,100.00
2018-12-18T07:29:09.348Z,100.00
2018-12-18T07:31:37.197Z,100.00
2018-12-18T07:34:04.626Z,100.00
2018-12-18T07:36:32.171Z,100.00
2018-12-18T07:38:59.674Z,100.00
2018-12-18T07:41:27.200Z,100.00
2018-12-18T07:43:54.633Z,100.00
2018-12-18T07:46:22.572Z,100.00
2018-12-18T07:48:50.025Z,100.00
2018-12-18T07:51:17.799Z,100.00
2018-12-18T07:53:45.231Z,100.00
2018-12-18T07:56:13.029Z,100.00
2018-12-18T07:58:40.458Z,100.00
2018-12-18T08:01:08.015Z,100.00
2018-12-18T08:03:35.486Z,100.00
2018-12-18T08:06:02.956Z,100.00
2018-12-18T08:08:30.417Z,100.00
2018-12-18T08:10:57.885Z,100.00
2018-12-18T08:13:25.342Z,100.00
2018-12-18T08:15:52.788Z,100.00
2018-12-18T08:18:20.246Z,100.00
2018-12-18T08:20:47.694Z,100.00
2018-12-18T08:23:15.171Z,100.00
2018-12-18T08:25:42.614Z,100.00
2018-12-18T08:28:10.079Z,100.00
2018-12-18T08:30:37.529Z,100.00
2018-12-18T08:33:04.997Z,100.00
2018-12-18T08:35:36.465Z,100.00
2018-12-18T08:38:01.943Z,100.00
2018-12-18T08:40:29.387Z,100.00
2018-12-18T08:42:56.859Z,100.00
2018-12-18T08:45:24.313Z,100.00
2018-12-18T08:47:51.808Z,100.00
2018-12-18T08:50:19.277Z,100.00
2018-12-18T08:52:46.745Z,100.00
2018-12-18T08:55:14.191Z,100.00
2018-12-18T08:57:42.162Z,100.00
2018-12-18T09:00:09.708Z,100.00
2018-12-18T09:02:37.170Z,100.00
2018-12-18T09:05:05.518Z,100.00
2018-12-18T09:07:32.969Z,100.00
2018-12-18T09:10:00.432Z,100.00
2018-12-18T09:12:27.873Z,100.00
2018-12-18T09:14:57.781Z,100.00
2018-12-18T09:17:30.969Z,100.00
2018-12-18T09:19:58.464Z,100.00
2018-12-18T09:22:25.905Z,100.00
2018-12-18T09:24:53.366Z,100.00
2018-12-18T09:27:20.814Z,100.00
2018-12-18T09:29:48.270Z,100.00
2018-12-18T09:32:15.722Z,100.00
2018-12-18T09:34:43.189Z,100.00
2018-12-18T09:37:10.657Z,100.00
2018-12-18T09:39:42.943Z,100.00
2018-12-18T09:42:16.035Z,100.00
2018-12-18T09:44:43.501Z,100.00
2018-12-18T09:47:11.166Z,100.00
2018-12-18T09:49:38.778Z,100.00
2018-12-18T09:52:06.277Z,100.00
2018-12-18T09:54:33.790Z,100.00
2018-12-18T09:57:01.221Z,100.00
2018-12-18T09:59:29.063Z,100.00
2018-12-18T10:01:56.834Z,100.00
2018-12-18T10:04:24.292Z,100.00
2018-12-18T10:06:51.757Z,100.00
2018-12-18T10:09:19.201Z,100.00
2018-12-18T10:11:46.671Z,100.00
2018-12-18T10:14:14.126Z,100.00
2018-12-18T10:16:41.595Z,100.00
2018-12-18T10:19:09.045Z,100.00
2018-12-18T10:21:36.510Z,100.00
2018-12-18T10:24:04.125Z,100.00
2018-12-18T10:26:31.606Z,100.00
2018-12-18T10:28:59.053Z,100.00
2018-12-18T10:31:26.590Z,100.00
2018-12-18T10:33:54.033Z,100.00
2018-12-18T10:36:21.470Z,100.00
2018-12-18T10:38:48.935Z,100.00
2018-12-18T10:41:16.394Z,100.00
2018-12-18T10:43:43.946Z,100.00
2018-12-18T10:46:11.659Z,100.00
2018-12-18T10:48:39.451Z,100.00
2018-12-18T10:51:06.913Z,100.00
2018-12-18T10:53:34.426Z,100.00
2018-12-18T10:56:01.872Z,100.00
2018-12-18T10:58:29.432Z,100.00
2018-12-18T11:01:02.424Z,100.00
2018-12-18T11:03:30.107Z,100.00
2018-12-18T11:05:57.543Z,100.00
2018-12-18T11:08:25.086Z,100.00
2018-12-18T11:10:52.527Z,100.00
2018-12-18T11:13:20.240Z,100.00
2018-12-18T11:15:47.686Z,100.00
2018-12-18T11:18:15.782Z,100.00
2018-12-18T11:20:43.215Z,100.00
2018-12-18T11:23:10.673Z,100.00
2018-12-18T11:25:38.266Z,100.00
2018-12-18T11:28:05.695Z,100.00
2018-12-18T11:30:33.389Z,100.00
2018-12-18T11:33:00.832Z,100.00
2018-12-18T11:35:28.611Z,100.00
2018-12-18T11:37:56.511Z,100.00
2018-12-18T11:40:24.142Z,100.00
2018-12-18T11:42:51.586Z,100.00
2018-12-18T11:45:19.374Z,99.52
2018-12-18T11:47:46.812Z,100.00
2018-12-18T11:50:14.594Z,97.45
2018-12-18T11:52:42.052Z,100.00
2018-12-18T11:55:09.638Z,100.00
2018-12-18T11:57:37.080Z,100.00
2018-12-18T12:00:08.765Z,100.00
2018-12-18T12:02:40.021Z,100.00
2018-12-18T12:05:06.228Z,100.00
2018-12-18T12:07:33.668Z,100.00
2018-12-18T12:10:01.343Z,100.00
2018-12-18T12:12:28.786Z,100.00
2018-12-18T12:14:56.886Z,100.00
2018-12-18T12:17:24.694Z,100.00
2018-12-18T12:19:52.143Z,100.00
2018-12-18T12:22:19.878Z,98.33
2018-12-18T12:24:47.322Z,98.22
2018-12-18T12:27:20.965Z,96.95
2018-12-18T12:29:48.388Z,99.40
2018-12-18T12:32:16.178Z,100.00
2018-12-18T12:34:43.625Z,97.43
2018-12-18T12:37:11.391Z,93.85
2018-12-18T12:39:38.834Z,95.02
2018-12-18T12:42:06.629Z,96.32
2018-12-18T12:44:34.081Z,94.71
2018-12-18T12:47:01.862Z,96.20
2018-12-18T12:49:34.797Z,91.57
2018-12-18T12:52:02.513Z,92.81
2018-12-18T12:54:29.933Z,95.88
2018-12-18T12:56:57.830Z,93.08
2018-12-18T12:59:25.465Z,95.42
2018-12-18T13:01:52.930Z,95.43
2018-12-18T13:04:20.389Z,94.90
2018-12-18T13:06:47.837Z,96.83
2018-12-18T13:09:15.297Z,94.72
2018-12-18T13:11:42.838Z,96.92
2018-12-18T13:14:10.305Z,95.10
2018-12-18T13:16:37.749Z,95.28
2018-12-18T13:19:05.205Z,96.23
2018-12-18T13:21:32.654Z,96.78
2018-12-18T13:24:00.122Z,95.07
2018-12-18T13:26:27.574Z,98.96
2018-12-18T13:28:55.033Z,97.25
2018-12-18T13:31:22.486Z,99.67
2018-12-18T13:33:49.965Z,95.15
2018-12-18T13:36:17.427Z,95.84
2018-12-18T13:38:44.938Z,97.00
2018-12-18T13:41:12.518Z,92.20
2018-12-18T13:43:39.999Z,90.08
2018-12-18T13:46:07.564Z,91.17
2018-12-18T13:48:36.431Z,87.66
2018-12-18T13:51:04.157Z,92.47
2018-12-18T13:53:31.611Z,94.03
2018-12-18T13:55:59.062Z,94.83
2018-12-18T13:58:26.493Z,93.72
2018-12-18T14:00:53.968Z,87.83
2018-12-18T14:03:21.415Z,87.18
2018-12-18T14:05:48.885Z,88.77
2018-12-18T14:08:16.322Z,80.92
2018-12-18T14:10:43.779Z,79.29
2018-12-18T14:13:11.221Z,79.05
2018-12-18T14:15:38.683Z,78.74
2018-12-18T14:18:06.110Z,81.84
2018-12-18T14:20:33.943Z,86.81
2018-12-18T14:23:01.377Z,87.18
2018-12-18T14:25:29.003Z,83.63
2018-12-18T14:27:56.448Z,85.67
2018-12-18T14:30:24.073Z,92.28
2018-12-18T14:32:51.505Z,91.11
2018-12-18T14:35:18.977Z,92.32
2018-12-18T14:37:46.422Z,92.54
2018-12-18T14:40:13.893Z,95.66
2018-12-18T14:42:41.347Z,93.12
2018-12-18T14:45:08.816Z,90.67
2018-12-18T14:47:36.271Z,94.85
2018-12-18T14:50:04.876Z,97.04
2018-12-18T14:52:32.336Z,96.43
2018-12-18T14:54:59.783Z,95.00
2018-12-18T14:57:27.262Z,97.60
2018-12-18T14:59:54.709Z,98.15
2018-12-18T15:02:22.176Z,100.00
2018-12-18T15:04:49.630Z,100.00
2018-12-18T15:07:17.094Z,100.00
2018-12-18T15:09:44.541Z,100.00
2018-12-18T15:12:12.005Z,100.00
2018-12-18T15:14:39.442Z,99.23
2018-12-18T15:17:06.917Z,100.00
2018-12-18T15:19:34.357Z,100.00
2018-12-18T15:22:01.831Z,100.00
2018-12-18T15:24:29.277Z,100.00
2018-12-18T15:26:56.741Z,100.00
2018-12-18T15:29:24.193Z,100.00
2018-12-18T15:31:51.751Z,100.00
2018-12-18T15:34:19.208Z,100.00
2018-12-18T15:36:46.745Z,100.00
2018-12-18T15:39:14.217Z,100.00
2018-12-18T15:41:41.666Z,100.00
2018-12-18T15:44:09.157Z,100.00
2018-12-18T15:46:36.599Z,100.00
2018-12-18T15:49:04.081Z,100.00
2018-12-18T15:51:31.538Z,100.00
2018-12-18T15:53:58.999Z,100.00
2018-12-18T15:56:26.514Z,100.00
2018-12-18T15:58:53.991Z,100.00
2018-12-18T16:01:21.439Z,100.00
2018-12-18T16:03:48.899Z,100.00
2018-12-18T16:06:16.353Z,100.00
2018-12-18T16:08:43.817Z,100.00
2018-12-18T16:11:11.260Z,100.00
2018-12-18T16:13:38.730Z,100.00
2018-12-18T16:16:06.466Z,100.00
2018-12-18T16:18:33.932Z,100.00
2018-12-18T16:21:01.390Z,100.00
2018-12-18T16:23:28.859Z,100.00
2018-12-18T16:25:57.831Z,100.00
2018-12-18T16:28:25.312Z,100.00
2018-12-18T16:30:52.770Z,100.00
2018-12-18T16:33:20.222Z,100.00
2018-12-18T16:35:47.711Z,100.00
2018-12-18T16:38:15.159Z,100.00
2018-12-18T16:40:42.621Z,100.00
2018-12-18T16:43:10.062Z,100.00
2018-12-18T16:45:37.538Z,100.00
2018-12-18T16:48:04.990Z,100.00
2018-12-18T16:50:32.457Z,100.00
2018-12-18T16:52:59.934Z,100.00
2018-12-18T16:55:27.391Z,100.00
2018-12-18T16:57:54.842Z,100.00
2018-12-18T17:00:22.310Z,100.00
2018-12-18T17:02:49.768Z,100.00
2018-12-18T17:05:17.237Z,100.00
2018-12-18T17:07:44.696Z,100.00
2018-12-18T17:10:12.263Z,100.00
2018-12-18T17:12:41.730Z,100.00
2018-12-18T17:15:09.200Z,100.00
2018-12-18T17:17:36.660Z,100.00
2018-12-18T17:20:05.122Z,100.00
2018-12-18T17:22:32.598Z,100.00
2018-12-18T17:25:00.059Z,100.00
2018-12-18T17:27:27.530Z,100.00
2018-12-18T17:29:54.986Z,100.00
2018-12-18T17:32:22.456Z,100.00
2018-12-18T17:34:49.930Z,100.00
2018-12-18T17:37:17.387Z,100.00
2018-12-18T17:39:44.863Z,100.00
2018-12-18T17:42:12.395Z,100.00
2018-12-18T17:44:41.118Z,100.00
2018-12-18T17:47:08.942Z,100.00
2018-12-18T17:49:36.405Z,100.00
2018-12-18T17:52:03.947Z,100.00
2018-12-18T17:54:32.260Z,100.00
2018-12-18T17:56:59.726Z,100.00
2018-12-18T17:59:27.177Z,100.00
2018-12-18T18:01:54.622Z,100.00
2018-12-18T18:04:22.088Z,100.00
2018-12-18T18:06:49.545Z,100.00
2018-12-18T18:09:17.335Z,100.00
2018-12-18T18:11:44.789Z,100.00
2018-12-18T18:14:12.272Z,100.00
2018-12-18T18:16:39.718Z,100.00
2018-12-18T18:19:07.186Z,100.00
2018-12-18T18:21:34.634Z,100.00
2018-12-18T18:24:02.103Z,100.00
2018-12-18T18:26:29.552Z,100.00
2018-12-18T18:28:57.038Z,100.00
2018-12-18T18:31:24.502Z,100.00
2018-12-18T18:33:51.967Z,100.00
2018-12-18T18:36:19.419Z,100.00
2018-12-18T18:38:46.899Z,100.00
2018-12-18T18:41:14.346Z,100.00
2018-12-18T18:43:41.811Z,100.00
2018-12-18T18:46:09.249Z,100.00
2018-12-18T18:48:36.968Z,100.00
2018-12-18T18:51:04.439Z,100.00
2018-12-18T18:53:31.886Z,100.00
2018-12-18T18:55:59.355Z,100.00
2018-12-18T18:58:26.810Z,100.00
2018-12-18T19:00:54.284Z,100.00
2018-12-18T19:03:21.754Z,100.00
2018-12-18T19:05:49.253Z,100.00
2018-12-18T19:08:16.702Z,100.00
2018-12-18T19:10:44.187Z,100.00
2018-12-18T19:13:11.660Z,100.00
2018-12-18T19:15:39.114Z,100.00
2018-12-18T19:18:06.590Z,100.00
2018-12-18T19:20:34.062Z,100.00
2018-12-18T19:23:01.522Z,100.00
2018-12-18T19:25:29.018Z,100.00
2018-12-18T19:27:56.619Z,100.00
2018-12-18T19:30:24.125Z,100.00
2018-12-18T19:32:51.662Z,100.00
2018-12-18T19:35:19.130Z,100.00
2018-12-18T19:37:46.694Z,100.00
2018-12-18T19:40:14.158Z,100.00
2018-12-18T19:42:41.609Z,100.00
2018-12-18T19:45:09.050Z,100.00
2018-12-18T19:47:36.541Z,100.00
2018-12-18T19:50:04.642Z,100.00
2018-12-18T19:52:32.132Z,100.00
2018-12-18T19:54:59.581Z,100.00
2018-12-18T19:57:27.041Z,100.00
2018-12-18T19:59:54.483Z,100.00
2018-12-18T20:02:21.947Z,100.00
2018-12-18T20:04:49.426Z,100.00
2018-12-18T20:07:16.893Z,100.00
2018-12-18T20:09:44.373Z,100.00
2018-12-18T20:12:11.869Z,100.00
2018-12-18T20:14:39.729Z,100.00
2018-12-18T20:17:07.683Z,100.00
2018-12-18T20:19:35.542Z,100.00
2018-12-18T20:22:02.993Z,100.00
2018-12-18T20:24:30.515Z,100.00
2018-12-18T20:26:58.037Z,100.00
2018-12-18T20:29:25.501Z,100.00
2018-12-18T20:31:52.960Z,100.00
2018-12-18T20:34:20.486Z,100.00
2018-12-18T20:36:47.929Z,100.00
2018-12-18T20:39:15.421Z,100.00
2018-12-18T20:41:42.870Z,100.00
2018-12-18T20:44:10.325Z,100.00
2018-12-18T20:46:37.773Z,100.00
2018-12-18T20:49:05.241Z,100.00
2018-12-18T20:51:32.681Z,100.00
2018-12-18T20:54:00.149Z,100.00
2018-12-18T20:56:27.615Z,100.00
2018-12-18T20:58:55.238Z,100.00
2018-12-18T21:01:22.707Z,100.00
2018-12-18T21:03:50.234Z,100.00
2018-12-18T21:06:17.686Z,100.00
2018-12-18T21:08:45.132Z,100.00
2018-12-18T21:11:12.677Z,100.00
2018-12-18T21:13:40.139Z,100.00
2018-12-18T21:16:07.608Z,100.00
2018-12-18T21:18:35.181Z,100.00
2018-12-18T21:21:03.543Z,100.00
2018-12-18T21:23:31.001Z,100.00
2018-12-18T21:25:58.470Z,100.00
2018-12-18T21:28:25.927Z,100.00
2018-12-18T21:30:53.402Z,100.00
2018-12-18T21:33:21.000Z,100.00
2018-12-18T21:35:48.557Z,100.00
2018-12-18T21:38:16.034Z,100.00
2018-12-18T21:40:43.489Z,100.00
2018-12-18T21:43:10.958Z,100.00
2018-12-18T21:45:38.409Z,100.00
2018-12-18T21:48:05.887Z,100.00
2018-12-18T21:50:33.329Z,100.00
2018-12-18T21:53:00.793Z,100.00
2018-12-18T21:55:28.247Z,100.00
2018-12-18T21:57:55.714Z,100.00
2018-12-18T22:00:23.166Z,100.00
2018-12-18T22:02:51.487Z,100.00
2018-12-18T22:05:19.314Z,100.00
2018-12-18T22:07:46.777Z,100.00
2018-12-18T22:10:14.237Z,100.00
2018-12-18T22:12:41.706Z,100.00
2018-12-18T22:15:09.155Z,100.00
2018-12-18T22:17:36.619Z,100.00
2018-12-18T22:20:05.388Z,100.00
2018-12-18T22:22:32.849Z,100.00
2018-12-18T22:25:00.322Z,100.00
2018-12-18T22:27:27.770Z,100.00
2018-12-18T22:29:55.244Z,100.00
2018-12-18T22:32:22.699Z,100.00
2018-12-18T22:34:50.165Z,100.00
2018-12-18T22:37:17.607Z,100.00
2018-12-18T22:39:45.066Z,100.00
2018-12-18T22:42:12.513Z,100.00
2018-12-18T22:44:39.973Z,100.00
2018-12-18T22:47:07.417Z,100.00
2018-12-18T22:49:34.884Z,100.00
2018-12-18T22:52:02.341Z,100.00
2018-12-18T22:54:29.802Z,100.00
2018-12-18T22:56:57.254Z,100.00
2018-12-18T22:59:24.715Z,100.00
2018-12-18T23:01:52.166Z,100.00
2018-12-18T23:04:19.629Z,100.00
2018-12-18T23:06:47.078Z,100.00
2018-12-18T23:09:15.119Z,100.00
2018-12-18T23:11:42.594Z,100.00
2018-12-18T23:14:10.039Z,100.00
2018-12-18T23:16:37.505Z,100.00
2018-12-18T23:19:04.954Z,100.00
2018-12-18T23:21:32.540Z,100.00
2018-12-18T23:23:59.997Z,100.00
2018-12-18T23:26:27.464Z,100.00
2018-12-18T23:28:54.913Z,100.00
2018-12-18T23:31:22.385Z,100.00
2018-12-18T23:33:49.829Z,100.00
2018-12-18T23:36:17.302Z,100.00
2018-12-18T23:38:44.773Z,100.00
2018-12-18T23:41:12.437Z,100.00
2018-12-18T23:43:39.896Z,100.00
2018-12-18T23:46:07.357Z,100.00
2018-12-18T23:48:39.708Z,100.00
2018-12-18T23:51:04.492Z,100.00
2018-12-18T23:53:31.945Z,100.00
2018-12-18T23:55:59.410Z,100.00
2018-12-18T23:58:26.858Z,100.00
